Terminal Aerodrome Forecast
Issued by NWS

Home | Current Version | Previous Version | Text Only | Print | Product List | Glossary On
Versions: 1 2 3 4 5 6 7 8 9 10 11 12 13 14
000
FTUS44 KLZK 012300 RRA
TAFBPK
TAF
KBPK 012340Z 0200/0224 18008KT P6SM SCT250
     FM020900 16007KT P6SM SCT050 BKN100
     FM021200 17008KT 5SM BR VCSH SCT025 BKN050
     FM021600 18010G18KT P6SM VCTS SCT050CB PROB30 0220/0224 5SM
      -TSRA BR OVC050CB=

USA.gov is the U.S. government's official web portal to all federal, state and local government web resources and services.